createdAt,value
2023-05-09T00:01:13.469Z,81.30
2023-05-09T00:06:15.571Z,81.45
2023-05-09T00:11:17.331Z,81.39
2023-05-09T00:16:20.627Z,81.24
2023-05-09T00:21:22.508Z,81.22
2023-05-09T00:26:24.377Z,81.30
2023-05-09T00:31:26.694Z,81.57
2023-05-09T00:36:28.568Z,81.16
2023-05-09T00:41:30.232Z,81.54
2023-05-09T00:46:32.430Z,81.18
2023-05-09T00:51:36.673Z,81.23
2023-05-09T00:56:39.516Z,80.74
2023-05-09T01:01:41.607Z,80.65
2023-05-09T01:07:02.536Z,80.07
2023-05-09T01:12:31.271Z,79.37
2023-05-09T01:17:55.443Z,78.73
2023-05-09T01:23:17.305Z,78.47
2023-05-09T01:28:51.787Z,78.23
2023-05-09T01:33:58.293Z,77.55
2023-05-09T01:39:02.166Z,77.11
2023-05-09T01:44:07.960Z,77.12
2023-05-09T01:49:11.967Z,77.18
2023-05-09T01:54:14.326Z,77.23
2023-05-09T01:59:16.702Z,77.43
2023-05-09T02:04:19.166Z,77.50
2023-05-09T02:09:22.061Z,77.54
2023-05-09T02:14:23.927Z,77.54
2023-05-09T02:19:26.133Z,78.03
2023-05-09T02:24:29.006Z,77.36
2023-05-09T02:29:40.020Z,75.88
2023-05-09T02:34:43.658Z,76.03
2023-05-09T02:39:46.143Z,75.58
2023-05-09T02:44:48.163Z,75.02
2023-05-09T02:49:51.113Z,74.66
2023-05-09T02:54:52.952Z,74.58
2023-05-09T02:59:54.616Z,74.47
2023-05-09T03:04:57.526Z,74.70
2023-05-09T03:09:59.752Z,74.79
2023-05-09T03:15:02.469Z,74.80
2023-05-09T03:20:07.910Z,74.97
2023-05-09T03:25:10.230Z,74.16
2023-05-09T03:30:12.878Z,74.27
2023-05-09T03:35:16.296Z,74.39
2023-05-09T03:40:18.371Z,74.27
2023-05-09T03:45:28.644Z,74.77
2023-05-09T03:50:31.259Z,75.32
2023-05-09T03:55:34.303Z,75.94
2023-05-09T04:00:36.476Z,75.73
2023-05-09T04:05:44.843Z,75.13
2023-05-09T04:10:53.630Z,75.25
2023-05-09T04:15:56.049Z,75.79
2023-05-09T04:20:58.797Z,76.82
2023-05-09T04:26:01.509Z,76.82
2023-05-09T04:31:04.295Z,76.98
2023-05-09T04:36:07.832Z,77.27
2023-05-09T04:41:10.324Z,77.16
2023-05-09T04:46:12.169Z,77.93
2023-05-09T04:51:13.947Z,78.12
2023-05-09T04:56:15.963Z,78.10
2023-05-09T05:01:19.313Z,77.81
2023-05-09T05:06:21.611Z,77.41
2023-05-09T05:11:23.618Z,77.55
2023-05-09T05:16:25.621Z,76.85
2023-05-09T05:21:27.773Z,76.20
2023-05-09T05:26:29.636Z,75.82
2023-05-09T05:31:32.342Z,75.39
2023-05-09T05:36:34.277Z,75.26
2023-05-09T05:41:36.520Z,76.02
2023-05-09T05:46:40.290Z,73.25
2023-05-09T05:51:42.569Z,72.51
2023-05-09T05:56:45.195Z,71.62
2023-05-09T06:01:47.066Z,70.36
2023-05-09T06:06:49.632Z,69.80
2023-05-09T06:11:52.128Z,69.46
2023-05-09T06:16:54.635Z,69.34
2023-05-09T06:21:56.663Z,68.33
2023-05-09T06:26:58.427Z,68.00
2023-05-09T06:32:01.284Z,67.86
2023-05-09T06:37:03.265Z,67.70
2023-05-09T06:42:05.099Z,68.07
2023-05-09T06:47:12.172Z,68.18
2023-05-09T06:52:15.667Z,68.22
2023-05-09T06:57:17.582Z,67.58
2023-05-09T07:02:19.308Z,66.67
2023-05-09T07:07:21.072Z,67.11
2023-05-09T07:12:22.974Z,67.49
2023-05-09T07:17:25.188Z,67.03
2023-05-09T07:22:28.235Z,66.50
2023-05-09T07:27:32.031Z,66.64
2023-05-09T07:32:34.355Z,66.98
2023-05-09T07:37:36.853Z,64.79
2023-05-09T07:42:39.451Z,65.64
2023-05-09T07:47:41.707Z,63.98
2023-05-09T07:52:43.476Z,64.96
2023-05-09T07:57:45.378Z,62.22
2023-05-09T08:02:47.193Z,62.82
2023-05-09T08:07:48.952Z,62.26
2023-05-09T08:12:51.281Z,63.17
2023-05-09T08:17:53.741Z,62.21
2023-05-09T08:22:56.155Z,61.22
2023-05-09T08:27:58.016Z,62.08
2023-05-09T08:32:59.777Z,61.91
2023-05-09T08:38:01.526Z,62.23
2023-05-09T08:43:06.099Z,62.27
2023-05-09T08:48:09.137Z,62.03
2023-05-09T08:53:12.288Z,60.18
2023-05-09T08:58:14.613Z,61.67
2023-05-09T09:03:17.370Z,62.29
2023-05-09T09:08:20.593Z,59.98
2023-05-09T09:13:23.292Z,61.61
2023-05-09T09:18:29.775Z,61.15
2023-05-09T09:23:32.896Z,60.59
2023-05-09T09:28:35.240Z,60.39
2023-05-09T09:33:36.870Z,60.84
2023-05-09T09:38:43.901Z,60.24
2023-05-09T09:43:47.110Z,58.91
2023-05-09T09:48:52.913Z,59.39
2023-05-09T09:53:55.664Z,58.47
2023-05-09T09:59:09.921Z,58.05
2023-05-09T10:04:16.583Z,58.55
2023-05-09T10:09:18.922Z,58.42
2023-05-09T10:14:23.342Z,55.62
2023-05-09T10:19:27.238Z,58.63
2023-05-09T10:24:42.111Z,57.09
2023-05-09T10:29:51.489Z,56.74
2023-05-09T10:35:01.947Z,56.09
2023-05-09T10:40:05.113Z,56.60
2023-05-09T10:45:09.505Z,55.73
2023-05-09T10:50:13.158Z,56.22
2023-05-09T10:55:15.648Z,52.91
2023-05-09T11:00:24.476Z,52.04
2023-05-09T11:05:39.140Z,55.26
2023-05-09T11:10:44.840Z,55.14
2023-05-09T11:16:02.064Z,53.95
2023-05-09T11:21:11.442Z,53.83
2023-05-09T11:26:14.710Z,53.47
2023-05-09T11:31:18.455Z,52.06
2023-05-09T11:36:25.323Z,53.13
2023-05-09T11:41:27.777Z,51.74
2023-05-09T11:46:29.588Z,51.31
2023-05-09T11:51:31.384Z,52.73
2023-05-09T11:56:34.985Z,51.77
2023-05-09T12:01:36.801Z,52.92
2023-05-09T12:06:38.613Z,51.74
2023-05-09T12:11:49.846Z,50.66
2023-05-09T12:16:52.038Z,50.82
2023-05-09T12:21:58.692Z,50.92
2023-05-09T12:27:00.709Z,50.59
2023-05-09T12:32:02.914Z,49.49
2023-05-09T12:37:18.004Z,49.28
2023-05-09T12:42:19.666Z,49.37
2023-05-09T12:47:21.324Z,48.56
2023-05-09T12:52:23.030Z,48.05
2023-05-09T12:57:29.376Z,46.65
2023-05-09T13:02:42.004Z,47.86
2023-05-09T13:07:49.933Z,47.45
2023-05-09T13:12:52.758Z,47.29
2023-05-09T13:17:54.510Z,46.81
2023-05-09T13:22:56.365Z,46.49
2023-05-09T13:27:58.211Z,45.32
2023-05-09T13:33:04.100Z,45.29
2023-05-09T13:38:14.760Z,44.49
2023-05-09T13:43:16.454Z,45.14
2023-05-09T13:48:18.070Z,43.88
2023-05-09T13:53:20.169Z,44.44
2023-05-09T13:58:21.915Z,43.38
2023-05-09T14:03:23.968Z,43.95
2023-05-09T14:08:25.840Z,44.44
2023-05-09T14:13:28.086Z,43.80
2023-05-09T14:18:30.745Z,44.91
2023-05-09T14:23:32.452Z,45.05
2023-05-09T14:28:34.335Z,45.72
2023-05-09T14:33:36.151Z,44.84
2023-05-09T14:38:38.079Z,44.04
2023-05-09T14:43:39.723Z,44.02
2023-05-09T14:48:41.501Z,44.33
2023-05-09T14:53:43.500Z,44.35
2023-05-09T14:58:45.397Z,44.02
2023-05-09T15:03:48.092Z,44.56
2023-05-09T15:08:49.833Z,42.87
2023-05-09T15:13:53.460Z,43.96
2023-05-09T15:18:55.389Z,44.73
2023-05-09T15:23:58.172Z,44.34
2023-05-09T15:28:59.791Z,43.93
2023-05-09T15:34:01.826Z,44.80
2023-05-09T15:39:05.032Z,43.98
2023-05-09T15:44:07.326Z,45.02
2023-05-09T15:49:09.028Z,44.54
2023-05-09T15:54:10.944Z,45.35
2023-05-09T15:59:12.633Z,46.35
2023-05-09T16:04:19.580Z,46.84
2023-05-09T16:09:21.733Z,46.53
2023-05-09T16:14:23.523Z,46.29
2023-05-09T16:19:25.389Z,46.88
2023-05-09T16:24:27.142Z,47.07
2023-05-09T16:29:29.017Z,47.68
2023-05-09T16:34:30.766Z,48.19
2023-05-09T16:39:32.665Z,48.79
2023-05-09T16:44:34.350Z,48.28
2023-05-09T16:49:36.416Z,48.81
2023-05-09T16:54:38.177Z,49.56
2023-05-09T16:59:40.051Z,49.55
2023-05-09T17:04:42.361Z,50.31
2023-05-09T17:09:44.688Z,50.49
2023-05-09T17:14:47.774Z,51.03
2023-05-09T17:19:49.442Z,51.59
2023-05-09T17:24:51.273Z,52.02
2023-05-09T17:29:52.949Z,52.23
2023-05-09T17:34:54.683Z,53.00
2023-05-09T17:39:56.431Z,53.33
2023-05-09T17:44:58.237Z,53.90
2023-05-09T17:49:59.964Z,54.04
2023-05-09T17:55:01.988Z,54.53
2023-05-09T18:00:06.960Z,54.85
2023-05-09T18:05:15.309Z,55.56
2023-05-09T18:10:17.656Z,55.84
2023-05-09T18:15:19.460Z,56.30
2023-05-09T18:20:21.504Z,56.67
2023-05-09T18:25:24.622Z,56.61
2023-05-09T18:30:27.411Z,56.99
2023-05-09T18:35:29.208Z,57.30
2023-05-09T18:40:32.501Z,57.17
2023-05-09T18:45:34.566Z,57.19
2023-05-09T18:50:37.068Z,57.11
2023-05-09T18:55:38.834Z,56.83
2023-05-09T19:00:40.618Z,56.85
2023-05-09T19:05:42.865Z,56.81
2023-05-09T19:10:44.820Z,56.74
2023-05-09T19:15:47.251Z,56.64
2023-05-09T19:20:49.192Z,56.73
2023-05-09T19:25:53.659Z,56.82
2023-05-09T19:30:57.036Z,56.96
2023-05-09T19:35:58.744Z,57.15
2023-05-09T19:41:00.482Z,57.43
2023-05-09T19:46:02.249Z,57.62
2023-05-09T19:51:04.416Z,58.38
2023-05-09T19:56:08.112Z,59.05
2023-05-09T20:01:10.032Z,59.71
2023-05-09T20:06:12.783Z,60.24
2023-05-09T20:11:14.852Z,60.49
2023-05-09T20:16:16.756Z,61.60
2023-05-09T20:21:18.657Z,61.67
2023-05-09T20:26:23.190Z,61.11
2023-05-09T20:31:26.273Z,60.36
2023-05-09T20:36:28.573Z,60.04
2023-05-09T20:41:30.697Z,59.64
2023-05-09T20:46:32.466Z,59.23
2023-05-09T20:51:34.299Z,58.85
2023-05-09T20:56:36.112Z,58.47
2023-05-09T21:01:40.576Z,58.44
2023-05-09T21:06:42.704Z,57.93
2023-05-09T21:11:45.701Z,57.91
2023-05-09T21:16:47.518Z,57.83
2023-05-09T21:21:49.657Z,57.88
2023-05-09T21:26:51.362Z,58.97
2023-05-09T21:31:53.539Z,59.44
2023-05-09T21:36:55.480Z,59.20
2023-05-09T21:41:57.200Z,58.88
2023-05-09T21:46:59.079Z,59.15
2023-05-09T21:52:00.908Z,60.35
2023-05-09T21:57:02.874Z,61.49
2023-05-09T22:02:05.218Z,62.31
2023-05-09T22:07:06.963Z,63.25
2023-05-09T22:12:08.960Z,64.67
2023-05-09T22:17:10.697Z,65.76
2023-05-09T22:22:13.089Z,66.91
2023-05-09T22:27:14.813Z,67.27
2023-05-09T22:32:16.523Z,67.73
2023-05-09T22:37:18.220Z,66.90
2023-05-09T22:42:21.629Z,66.86
2023-05-09T22:47:23.512Z,66.80
2023-05-09T22:52:25.325Z,67.38
2023-05-09T22:57:27.238Z,69.78
2023-05-09T23:02:29.088Z,70.76
2023-05-09T23:07:30.837Z,71.88
2023-05-09T23:12:32.445Z,72.98
2023-05-09T23:17:34.223Z,73.26
2023-05-09T23:22:35.969Z,74.07
2023-05-09T23:27:40.459Z,74.55
2023-05-09T23:32:42.739Z,74.98
2023-05-09T23:37:44.674Z,75.65
2023-05-09T23:42:46.432Z,76.50
2023-05-09T23:47:48.220Z,77.68
2023-05-09T23:52:51.045Z,78.48
2023-05-09T23:57:52.645Z,79.13
